Time;durP1;ratioP1;P1;durP2;ratioP2;P2;SDS_P1;SDS_P2;PMS_P1;PMS_P2;Temp;Humidity;BMP_temperature;BMP_pressure;BME280_temperature;BME280_humidity;BME280_pressure;Samples;Min_cycle;Max_cycle;Signal;HPM_P1;HPM_P2
2020/12/04 00:00:56;;;;;;;17.13;11.63;;;;;;;;;;5131466;28;20684;-96
2020/12/04 00:03:23;;;;;;;14.93;10.07;;;;;;;;;;5132819;28;20502;-95
2020/12/04 00:05:49;;;;;;;15.43;11.03;;;;;;;;;;5134017;28;20447;-95
2020/12/04 00:08:26;;;;;;;15.97;11.43;;;;;;;;;;5132459;28;20419;-96
2020/12/04 00:10:52;;;;;;;13.27;10.97;;;;;;;;;;5128674;28;20459;-94
2020/12/04 00:13:19;;;;;;;15.13;10.70;;;;;;;;;;5133162;28;20441;-94
2020/12/04 00:15:45;;;;;;;12.80;10.37;;;;;;;;;;5131985;28;20451;-95
2020/12/04 00:18:30;;;;;;;13.13;11.03;;;;;;;;;;5135572;28;20467;-96
2020/12/04 00:20:56;;;;;;;15.47;10.73;;;;;;;;;;5128178;28;20486;-96
2020/12/04 00:23:25;;;;;;;15.27;12.03;;;;;;;;;;5097808;22;21079;-96
2020/12/04 00:25:51;;;;;;;17.73;12.97;;;;;;;;;;5090904;28;20447;-91
2020/12/04 00:28:18;;;;;;;15.07;11.90;;;;;;;;;;5100498;28;20988;-95
2020/12/04 00:30:44;;;;;;;14.97;11.27;;;;;;;;;;5089916;28;20458;-92
2020/12/04 00:33:10;;;;;;;15.60;11.77;;;;;;;;;;5084949;28;20452;-96
2020/12/04 00:35:36;;;;;;;20.93;11.30;;;;;;;;;;5070217;28;20465;-92
2020/12/04 00:38:02;;;;;;;15.20;11.50;;;;;;;;;;5071489;28;20460;-92
2020/12/04 00:40:28;;;;;;;14.50;10.63;;;;;;;;;;5113953;28;20498;-96
2020/12/04 00:43:08;;;;;;;13.60;11.23;;;;;;;;;;5109760;28;20444;-96
2020/12/04 00:45:35;;;;;;;15.70;11.73;;;;;;;;;;5097354;22;20604;-93
2020/12/04 00:51:13;;;;;;;17.70;12.23;;;;;;;;;;5119398;28;20453;-96
2020/12/04 00:53:50;;;;;;;17.13;12.30;;;;;;;;;;5094484;28;20424;-96
2020/12/04 00:56:16;;;;;;;16.40;11.67;;;;;;;;;;5103949;28;20461;-95
2020/12/04 00:58:43;;;;;;;15.97;11.80;;;;;;;;;;5100527;28;20469;-95
2020/12/04 01:01:10;;;;;;;15.03;10.37;;;;;;;;;;5097932;28;20497;-94
2020/12/04 01:03:36;;;;;;;15.00;11.13;;;;;;;;;;5105806;28;20460;-94
2020/12/04 01:06:06;;;;;;;15.73;11.57;;;;;;;;;;5105487;28;20449;-96
2020/12/04 01:08:34;;;;;;;14.50;11.13;;;;;;;;;;5101642;28;20456;-95
2020/12/04 01:11:00;;;;;;;15.80;11.70;;;;;;;;;;5104144;28;20467;-92
2020/12/04 01:13:26;;;;;;;14.53;10.10;;;;;;;;;;5111750;28;20447;-93
2020/12/04 01:15:54;;;;;;;16.87;11.80;;;;;;;;;;5128679;28;20509;-96
2020/12/04 01:18:21;;;;;;;14.03;10.63;;;;;;;;;;5114946;28;20460;-94
2020/12/04 01:20:47;;;;;;;14.30;10.27;;;;;;;;;;5107984;28;20480;-95
2020/12/04 01:23:13;;;;;;;16.10;11.63;;;;;;;;;;5110948;28;20510;-95
2020/12/04 01:25:39;;;;;;;14.87;10.90;;;;;;;;;;5108132;28;20448;-96
2020/12/04 01:28:23;;;;;;;13.10;10.40;;;;;;;;;;5108808;28;20440;-96
2020/12/04 01:30:50;;;;;;;15.40;10.90;;;;;;;;;;5129571;28;20474;-96
2020/12/04 01:33:20;;;;;;;15.50;10.67;;;;;;;;;;5133961;28;20444;-96
2020/12/04 01:36:07;;;;;;;14.70;11.07;;;;;;;;;;5111802;28;20428;-96
2020/12/04 01:38:35;;;;;;;17.00;10.90;;;;;;;;;;5110902;28;20518;-94
2020/12/04 01:41:13;;;;;;;16.27;10.87;;;;;;;;;;5114760;28;20472;-94
2020/12/04 01:48:49;;;;;;;13.90;11.90;;;;;;;;;;5086909;28;20488;-96
2020/12/04 01:54:20;;;;;;;16.70;11.90;;;;;;;;;;5088758;22;20377;-96
2020/12/04 01:57:01;;;;;;;16.87;12.13;;;;;;;;;;5118266;28;20516;-96
2020/12/04 01:59:27;;;;;;;15.50;11.43;;;;;;;;;;5092557;23;20521;-96
2020/12/04 02:02:17;;;;;;;19.10;11.40;;;;;;;;;;5112357;28;20440;-96
2020/12/04 02:05:03;;;;;;;15.27;11.17;;;;;;;;;;5114196;28;20514;-96
2020/12/04 02:07:35;;;;;;;14.27;10.67;;;;;;;;;;5166988;22;20489;-96
2020/12/04 02:12:36;;;;;;;15.80;10.57;;;;;;;;;;5129048;22;20483;-96
2020/12/04 02:15:09;;;;;;;13.30;10.20;;;;;;;;;;5095628;28;20452;-96
2020/12/04 02:17:36;;;;;;;15.10;10.40;;;;;;;;;;5071850;23;20477;-96
2020/12/04 02:20:04;;;;;;;15.67;11.13;;;;;;;;;;5049298;28;20614;-96
2020/12/04 02:22:38;;;;;;;15.93;11.60;;;;;;;;;;5057337;28;20435;-96
2020/12/04 02:25:05;;;;;;;15.00;10.73;;;;;;;;;;5057217;28;20516;-96
2020/12/04 02:27:31;;;;;;;16.03;11.50;;;;;;;;;;5043424;28;20462;-95
2020/12/04 02:29:57;;;;;;;15.30;11.57;;;;;;;;;;5050342;28;20458;-94
2020/12/04 02:32:24;;;;;;;19.63;13.20;;;;;;;;;;5065278;28;20462;-94
2020/12/04 02:34:50;;;;;;;18.90;13.47;;;;;;;;;;5061853;28;20461;-95
2020/12/04 02:37:16;;;;;;;16.83;12.60;;;;;;;;;;5064594;28;20450;-95
2020/12/04 02:39:43;;;;;;;22.17;16.07;;;;;;;;;;5063183;28;20512;-95
2020/12/04 02:42:09;;;;;;;23.37;15.00;;;;;;;;;;5045183;28;20447;-94
2020/12/04 02:44:35;;;;;;;24.90;16.63;;;;;;;;;;5044239;28;20451;-95
2020/12/04 02:47:01;;;;;;;27.50;17.83;;;;;;;;;;5022453;28;20456;-95
2020/12/04 02:49:27;;;;;;;24.77;16.80;;;;;;;;;;5024645;28;20458;-96
2020/12/04 02:51:54;;;;;;;24.20;14.70;;;;;;;;;;5037649;28;20458;-95
2020/12/04 02:54:21;;;;;;;24.40;16.50;;;;;;;;;;5043848;28;20462;-94
2020/12/04 02:56:48;;;;;;;24.33;17.20;;;;;;;;;;5032985;28;20441;-93
2020/12/04 02:59:14;;;;;;;24.97;17.83;;;;;;;;;;5021365;28;20451;-94
2020/12/04 03:01:40;;;;;;;25.17;18.27;;;;;;;;;;5026694;28;20443;-93
2020/12/04 03:04:06;;;;;;;23.10;16.43;;;;;;;;;;5044713;28;20470;-95
2020/12/04 03:06:32;;;;;;;25.77;16.50;;;;;;;;;;5063484;28;20465;-95
2020/12/04 03:08:59;;;;;;;28.10;17.70;;;;;;;;;;5060351;28;20954;-94
2020/12/04 03:11:25;;;;;;;26.33;16.90;;;;;;;;;;5068927;28;20457;-94
2020/12/04 03:13:52;;;;;;;28.10;16.40;;;;;;;;;;5059678;28;20460;-96
2020/12/04 03:16:18;;;;;;;25.70;15.83;;;;;;;;;;5068990;28;20450;-96
2020/12/04 03:18:45;;;;;;;44.80;30.97;;;;;;;;;;5062619;28;20478;-93
2020/12/04 03:21:11;;;;;;;31.37;21.93;;;;;;;;;;5047916;28;20533;-94
2020/12/04 03:23:37;;;;;;;31.20;21.20;;;;;;;;;;5053397;28;21000;-95
2020/12/04 03:26:03;;;;;;;35.77;21.50;;;;;;;;;;5044430;28;20465;-94
2020/12/04 03:28:29;;;;;;;23.60;17.03;;;;;;;;;;5044652;28;20450;-92
2020/12/04 03:30:56;;;;;;;27.00;18.17;;;;;;;;;;5060422;28;20458;-93
2020/12/04 03:33:22;;;;;;;26.40;17.40;;;;;;;;;;5062158;28;20470;-93
2020/12/04 03:35:48;;;;;;;23.00;16.73;;;;;;;;;;5039508;28;20868;-93
2020/12/04 03:38:15;;;;;;;24.30;15.87;;;;;;;;;;5045436;28;20447;-93
2020/12/04 03:40:43;;;;;;;25.03;15.40;;;;;;;;;;5047858;28;20489;-93
2020/12/04 03:43:09;;;;;;;26.50;15.43;;;;;;;;;;5065541;28;20966;-95
2020/12/04 03:45:35;;;;;;;23.20;15.23;;;;;;;;;;5065898;28;20819;-93
2020/12/04 03:48:02;;;;;;;24.80;14.47;;;;;;;;;;5048588;28;20465;-96
2020/12/04 03:50:28;;;;;;;21.23;14.10;;;;;;;;;;5058525;28;20453;-95
2020/12/04 03:52:54;;;;;;;23.17;14.20;;;;;;;;;;5052983;28;20458;-96
2020/12/04 03:55:20;;;;;;;25.03;15.60;;;;;;;;;;5044773;28;20447;-94
2020/12/04 03:57:46;;;;;;;27.03;17.20;;;;;;;;;;5044164;28;20459;-92
2020/12/04 04:00:12;;;;;;;29.80;18.80;;;;;;;;;;5045339;28;20497;-94
2020/12/04 04:02:38;;;;;;;19.60;13.63;;;;;;;;;;5046620;28;20473;-95
2020/12/04 04:05:06;;;;;;;19.30;12.80;;;;;;;;;;5045459;28;20513;-94
2020/12/04 04:07:32;;;;;;;18.80;13.13;;;;;;;;;;5049735;28;20838;-93
2020/12/04 04:09:58;;;;;;;22.43;14.20;;;;;;;;;;5062940;28;21269;-94
2020/12/04 04:12:24;;;;;;;22.07;14.20;;;;;;;;;;5060135;28;20465;-95
2020/12/04 04:14:50;;;;;;;18.50;12.30;;;;;;;;;;5045095;28;20778;-95
2020/12/04 04:17:16;;;;;;;20.63;13.00;;;;;;;;;;5045525;28;20477;-95
2020/12/04 04:19:42;;;;;;;17.60;11.67;;;;;;;;;;5044233;28;20493;-95
2020/12/04 04:22:10;;;;;;;21.40;12.60;;;;;;;;;;5050338;28;20446;-96
2020/12/04 04:24:36;;;;;;;19.63;12.17;;;;;;;;;;5051146;28;20473;-96
2020/12/04 04:27:02;;;;;;;18.57;12.63;;;;;;;;;;5049173;28;20533;-96
2020/12/04 04:29:28;;;;;;;17.47;11.33;;;;;;;;;;5046762;28;20453;-95
2020/12/04 04:31:54;;;;;;;18.33;11.20;;;;;;;;;;5046275;28;20611;-94
2020/12/04 04:34:21;;;;;;;18.57;12.23;;;;;;;;;;5046338;28;20474;-94
2020/12/04 04:36:47;;;;;;;14.63;10.50;;;;;;;;;;5047185;28;20451;-96
2020/12/04 04:39:14;;;;;;;18.50;12.10;;;;;;;;;;5053805;28;20499;-96
2020/12/04 04:44:15;;;;;;;17.80;11.57;;;;;;;;;;5360935;22;20284;-96
2020/12/04 04:46:44;;;;;;;21.50;11.67;;;;;;;;;;5099627;28;20463;-94
2020/12/04 04:49:26;;;;;;;14.43;9.88;;;;;;;;;;5118605;28;20435;-96
2020/12/04 04:51:53;;;;;;;19.33;12.57;;;;;;;;;;5112388;28;20197;-95
2020/12/04 04:54:20;;;;;;;16.37;11.43;;;;;;;;;;5118240;28;20460;-96
2020/12/04 04:56:47;;;;;;;17.03;11.67;;;;;;;;;;5113368;28;20444;-95
2020/12/04 04:59:13;;;;;;;16.80;10.40;;;;;;;;;;5110778;28;20439;-94
2020/12/04 05:01:39;;;;;;;19.48;10.77;;;;;;;;;;5130730;28;20500;-94
2020/12/04 05:04:05;;;;;;;19.70;11.23;;;;;;;;;;5118770;28;20221;-94
2020/12/04 05:06:32;;;;;;;17.27;11.43;;;;;;;;;;5106908;28;20440;-95
2020/12/04 05:08:58;;;;;;;21.65;12.00;;;;;;;;;;5113100;28;20452;-96
2020/12/04 05:11:25;;;;;;;24.33;12.90;;;;;;;;;;5126064;28;20201;-94
2020/12/04 05:14:10;;;;;;;19.55;13.02;;;;;;;;;;5122989;28;20489;-95
2020/12/04 05:16:38;;;;;;;20.58;12.77;;;;;;;;;;5100492;28;20208;-96
2020/12/04 05:24:35;;;;;;;23.90;14.68;;;;;;;;;;5091671;23;20249;-96
2020/12/04 05:27:04;;;;;;;20.42;13.40;;;;;;;;;;5083999;28;20210;-94
2020/12/04 05:29:36;;;;;;;32.47;14.52;;;;;;;;;;5090585;28;20204;-95
2020/12/04 05:32:13;;;;;;;23.50;15.10;;;;;;;;;;5079151;28;20776;-94
2020/12/04 05:34:39;;;;;;;22.20;14.20;;;;;;;;;;5085552;28;20206;-94
2020/12/04 05:37:05;;;;;;;24.55;14.43;;;;;;;;;;5076652;28;20452;-95
2020/12/04 05:39:40;;;;;;;20.97;13.23;;;;;;;;;;5084900;28;20216;-95
2020/12/04 05:42:07;;;;;;;21.85;14.50;;;;;;;;;;5091900;28;20457;-94
2020/12/04 05:44:34;;;;;;;22.20;14.60;;;;;;;;;;5084228;28;20206;-95
2020/12/04 05:47:01;;;;;;;19.33;12.95;;;;;;;;;;5083300;28;20216;-96
2020/12/04 05:49:40;;;;;;;23.10;12.70;;;;;;;;;;5086342;28;20219;-94
2020/12/04 05:52:07;;;;;;;21.60;13.37;;;;;;;;;;5098002;28;20218;-95
2020/12/04 05:54:33;;;;;;;21.67;13.57;;;;;;;;;;5086603;28;20441;-96
2020/12/04 05:57:03;;;;;;;26.83;15.90;;;;;;;;;;5089644;28;20325;-96
2020/12/04 05:59:40;;;;;;;22.08;13.85;;;;;;;;;;5090422;28;20455;-96
2020/12/04 06:02:07;;;;;;;26.15;16.77;;;;;;;;;;5094305;28;20194;-96
2020/12/04 06:04:35;;;;;;;28.40;15.70;;;;;;;;;;5096107;28;20274;-96
2020/12/04 06:07:02;;;;;;;23.90;15.30;;;;;;;;;;5090367;28;20539;-96
2020/12/04 06:09:33;;;;;;;20.53;13.60;;;;;;;;;;5075249;28;20191;-96
2020/12/04 06:12:02;;;;;;;24.42;14.88;;;;;;;;;;5091124;28;20512;-96
2020/12/04 06:14:40;;;;;;;22.25;15.13;;;;;;;;;;5094450;28;20209;-96
2020/12/04 06:20:25;;;;;;;28.10;16.80;;;;;;;;;;5087922;28;20500;-96
2020/12/04 06:23:05;;;;;;;30.33;16.58;;;;;;;;;;5093817;28;20220;-96
2020/12/04 06:25:51;;;;;;;27.30;15.20;;;;;;;;;;5082837;28;20213;-94
2020/12/04 06:28:30;;;;;;;20.25;13.10;;;;;;;;;;5095139;28;20464;-95
2020/12/04 06:31:00;;;;;;;21.27;13.80;;;;;;;;;;5087400;28;20197;-96
2020/12/04 06:33:35;;;;;;;19.13;11.80;;;;;;;;;;5093312;28;20191;-96
2020/12/04 06:36:04;;;;;;;22.30;13.20;;;;;;;;;;5091302;28;20509;-96
2020/12/04 06:38:39;;;;;;;22.00;12.17;;;;;;;;;;5103284;28;20214;-96
2020/12/04 06:41:32;;;;;;;20.55;13.20;;;;;;;;;;5114139;28;20503;-96
2020/12/04 06:44:00;;;;;;;20.63;13.30;;;;;;;;;;5076270;28;20210;-96
2020/12/04 06:46:34;;;;;;;24.40;14.20;;;;;;;;;;5092284;28;20210;-96
2020/12/04 06:49:36;;;;;;;21.20;14.37;;;;;;;;;;5086900;28;20487;-95
2020/12/04 06:52:05;;;;;;;19.77;13.43;;;;;;;;;;5091579;28;20496;-95
2020/12/04 06:54:32;;;;;;;20.73;13.73;;;;;;;;;;5090814;28;20445;-95
2020/12/04 06:56:59;;;;;;;21.33;13.67;;;;;;;;;;5083764;28;20979;-95
2020/12/04 06:59:27;;;;;;;22.30;14.30;;;;;;;;;;5092097;28;20477;-95
2020/12/04 07:02:11;;;;;;;22.25;14.52;;;;;;;;;;5091026;28;20484;-95
2020/12/04 07:04:39;;;;;;;21.13;13.63;;;;;;;;;;5081757;28;20237;-95
2020/12/04 07:07:08;;;;;;;22.53;14.50;;;;;;;;;;5088629;28;20195;-95
2020/12/04 07:09:35;;;;;;;20.23;13.30;;;;;;;;;;5096764;28;20441;-96
2020/12/04 07:12:03;;;;;;;18.53;12.30;;;;;;;;;;5088950;28;20879;-95
2020/12/04 07:14:30;;;;;;;22.60;14.17;;;;;;;;;;5071093;28;20460;-96
2020/12/04 07:16:58;;;;;;;22.20;13.30;;;;;;;;;;5084650;28;20445;-96
2020/12/04 07:19:25;;;;;;;22.27;15.23;;;;;;;;;;5069671;28;20480;-95
2020/12/04 07:21:53;;;;;;;28.97;17.63;;;;;;;;;;5084107;28;20488;-95
2020/12/04 07:24:21;;;;;;;32.97;19.57;;;;;;;;;;5090082;28;20456;-95
2020/12/04 07:26:55;;;;;;;31.17;20.73;;;;;;;;;;5091554;28;20471;-95
2020/12/04 07:29:22;;;;;;;35.00;22.50;;;;;;;;;;5097034;28;20436;-95
2020/12/04 07:31:54;;;;;;;40.00;23.27;;;;;;;;;;5090512;28;20450;-95
2020/12/04 07:34:21;;;;;;;35.00;23.83;;;;;;;;;;5093535;28;20448;-95
2020/12/04 07:36:51;;;;;;;37.27;23.43;;;;;;;;;;5092485;28;20564;-96
2020/12/04 07:39:41;;;;;;;33.10;22.73;;;;;;;;;;5075962;28;20628;-95
2020/12/04 07:42:09;;;;;;;29.10;19.53;;;;;;;;;;5089488;28;20445;-95
2020/12/04 07:44:37;;;;;;;35.70;23.37;;;;;;;;;;5092412;28;20456;-95
2020/12/04 07:47:18;;;;;;;35.60;23.00;;;;;;;;;;5108049;28;20452;-95
2020/12/04 07:49:48;;;;;;;32.60;20.87;;;;;;;;;;5091116;28;20471;-96
2020/12/04 07:52:19;;;;;;;28.17;18.90;;;;;;;;;;5092817;28;20435;-95
2020/12/04 07:54:50;;;;;;;29.73;20.27;;;;;;;;;;5077435;28;20453;-95
2020/12/04 07:57:24;;;;;;;30.20;17.97;;;;;;;;;;5098465;28;20486;-95
2020/12/04 07:59:53;;;;;;;28.50;18.30;;;;;;;;;;5098866;28;20505;-96
2020/12/04 08:02:24;;;;;;;22.30;16.10;;;;;;;;;;5095882;28;20445;-96
2020/12/04 08:04:55;;;;;;;19.93;14.10;;;;;;;;;;5072595;28;20491;-96
2020/12/04 08:07:21;;;;;;;24.47;14.37;;;;;;;;;;5112930;28;20531;-96
2020/12/04 08:09:52;;;;;;;18.57;13.07;;;;;;;;;;5086645;28;20457;-96
2020/12/04 08:12:26;;;;;;;20.10;14.03;;;;;;;;;;5077974;28;20453;-96
2020/12/04 08:15:02;;;;;;;19.07;13.50;;;;;;;;;;5073818;28;20452;-95
2020/12/04 08:17:30;;;;;;;27.30;16.83;;;;;;;;;;5056665;28;20511;-94
2020/12/04 08:19:56;;;;;;;27.40;18.10;;;;;;;;;;5070951;28;20446;-94
2020/12/04 08:22:28;;;;;;;30.43;20.40;;;;;;;;;;5074837;28;20445;-94
2020/12/04 08:25:07;;;;;;;31.37;20.80;;;;;;;;;;5101350;28;20821;-92
2020/12/04 08:27:33;;;;;;;27.03;19.20;;;;;;;;;;5095626;28;20437;-94
2020/12/04 08:30:07;;;;;;;30.03;20.70;;;;;;;;;;5094571;28;20456;-94
2020/12/04 08:32:34;;;;;;;28.97;20.87;;;;;;;;;;5080697;28;20445;-93
2020/12/04 08:35:13;;;;;;;25.87;18.27;;;;;;;;;;5103256;28;20453;-94
2020/12/04 08:37:40;;;;;;;26.97;18.13;;;;;;;;;;5102696;28;20480;-94
2020/12/04 08:40:22;;;;;;;28.60;19.40;;;;;;;;;;5093754;28;20445;-96
2020/12/04 08:42:49;;;;;;;28.03;19.03;;;;;;;;;;5084503;28;20469;-95
2020/12/04 08:45:15;;;;;;;24.60;17.20;;;;;;;;;;5081485;28;20446;-96
2020/12/04 08:47:42;;;;;;;26.90;17.03;;;;;;;;;;5088882;28;20480;-94
2020/12/04 08:50:14;;;;;;;24.30;16.00;;;;;;;;;;5084526;28;20433;-96
2020/12/04 08:52:42;;;;;;;26.53;16.47;;;;;;;;;;5089059;28;20576;-96
2020/12/04 08:55:08;;;;;;;20.50;15.70;;;;;;;;;;5075152;28;20460;-94
2020/12/04 08:57:36;;;;;;;24.43;16.30;;;;;;;;;;5069646;28;20446;-95
2020/12/04 09:00:02;;;;;;;22.80;15.90;;;;;;;;;;5072594;28;20442;-95
2020/12/04 09:02:28;;;;;;;20.87;15.90;;;;;;;;;;5091435;28;20970;-95
2020/12/04 09:04:54;;;;;;;23.63;16.60;;;;;;;;;;5090603;28;20540;-95
2020/12/04 09:07:28;;;;;;;22.37;16.10;;;;;;;;;;5072069;28;20449;-95
2020/12/04 09:09:55;;;;;;;21.50;15.00;;;;;;;;;;5086252;28;20540;-94
2020/12/04 09:12:23;;;;;;;28.87;18.13;;;;;;;;;;5087895;28;20567;-95
2020/12/04 09:14:51;;;;;;;28.70;21.23;;;;;;;;;;5098709;28;20445;-95
2020/12/04 09:17:19;;;;;;;24.87;18.80;;;;;;;;;;5094371;28;20474;-94
2020/12/04 09:19:45;;;;;;;26.80;19.17;;;;;;;;;;5092639;28;20461;-94
2020/12/04 09:22:12;;;;;;;28.03;19.37;;;;;;;;;;5088223;28;20480;-95
2020/12/04 09:24:39;;;;;;;25.03;19.27;;;;;;;;;;5094086;28;20516;-94
2020/12/04 09:27:06;;;;;;;25.63;19.20;;;;;;;;;;5086190;28;20466;-95
2020/12/04 09:29:32;;;;;;;25.70;18.40;;;;;;;;;;5091753;28;21297;-95
2020/12/04 09:32:05;;;;;;;25.97;18.13;;;;;;;;;;5089306;28;20461;-95
2020/12/04 09:34:32;;;;;;;28.93;20.80;;;;;;;;;;5074802;28;20445;-94
2020/12/04 09:37:08;;;;;;;27.90;20.57;;;;;;;;;;5091093;28;20444;-95
2020/12/04 09:39:34;;;;;;;30.77;21.13;;;;;;;;;;5084511;28;20444;-95
2020/12/04 09:42:00;;;;;;;31.50;21.50;;;;;;;;;;5087463;28;20495;-94
2020/12/04 09:44:26;;;;;;;33.97;26.40;;;;;;;;;;5087575;28;20456;-94
2020/12/04 09:46:52;;;;;;;37.10;25.33;;;;;;;;;;5067198;28;20449;-94
2020/12/04 09:49:19;;;;;;;31.67;21.30;;;;;;;;;;5085243;28;20481;-94
2020/12/04 09:51:45;;;;;;;28.87;21.97;;;;;;;;;;5090538;28;20455;-93
2020/12/04 09:54:11;;;;;;;28.70;21.20;;;;;;;;;;5093194;28;20464;-95
2020/12/04 09:56:37;;;;;;;29.53;21.97;;;;;;;;;;5084064;28;20447;-95
2020/12/04 09:59:03;;;;;;;32.87;22.37;;;;;;;;;;5082939;28;20446;-96
2020/12/04 10:01:29;;;;;;;31.40;21.90;;;;;;;;;;5084908;28;20499;-94
2020/12/04 10:03:55;;;;;;;29.30;21.53;;;;;;;;;;5105090;28;20444;-94
2020/12/04 10:06:22;;;;;;;33.40;25.20;;;;;;;;;;5082023;28;20453;-94
2020/12/04 10:08:48;;;;;;;32.63;24.17;;;;;;;;;;5088455;28;20457;-94
2020/12/04 10:11:15;;;;;;;45.13;34.90;;;;;;;;;;5076783;28;21005;-92
2020/12/04 10:13:42;;;;;;;58.47;42.57;;;;;;;;;;5068518;28;20462;-93
2020/12/04 10:16:08;;;;;;;53.90;42.17;;;;;;;;;;5069952;28;20599;-92
2020/12/04 10:18:35;;;;;;;49.07;37.40;;;;;;;;;;5085662;28;20508;-92
2020/12/04 10:21:01;;;;;;;49.43;35.10;;;;;;;;;;5090537;28;20491;-92
2020/12/04 10:23:28;;;;;;;45.10;29.30;;;;;;;;;;5082063;28;20542;-91
2020/12/04 10:25:54;;;;;;;40.53;27.90;;;;;;;;;;5085595;28;20467;-93
2020/12/04 10:28:20;;;;;;;37.23;24.57;;;;;;;;;;5071737;28;20480;-92
2020/12/04 10:30:46;;;;;;;33.10;24.03;;;;;;;;;;5090245;28;20473;-93
2020/12/04 10:33:13;;;;;;;34.37;23.00;;;;;;;;;;5092838;28;20446;-93
2020/12/04 10:35:39;;;;;;;28.63;20.90;;;;;;;;;;5086624;28;20457;-94
2020/12/04 10:38:10;;;;;;;29.40;20.00;;;;;;;;;;5086159;28;20452;-95
2020/12/04 10:40:38;;;;;;;29.40;20.13;;;;;;;;;;5086693;28;20478;-93
2020/12/04 10:43:04;;;;;;;32.43;23.57;;;;;;;;;;5083527;28;20446;-92
2020/12/04 10:45:30;;;;;;;32.63;22.70;;;;;;;;;;5080907;28;20483;-93
2020/12/04 10:47:56;;;;;;;33.23;22.93;;;;;;;;;;5083327;28;20455;-95
2020/12/04 10:50:23;;;;;;;37.20;21.73;;;;;;;;;;5080175;28;20461;-96
2020/12/04 10:52:49;;;;;;;29.23;21.30;;;;;;;;;;5088046;28;20449;-93
2020/12/04 10:55:15;;;;;;;29.80;19.60;;;;;;;;;;5080772;28;20463;-93
2020/12/04 10:57:42;;;;;;;24.47;17.93;;;;;;;;;;5087904;28;20457;-94
2020/12/04 11:00:08;;;;;;;22.63;17.07;;;;;;;;;;5090575;28;21222;-93
2020/12/04 11:02:36;;;;;;;28.73;19.87;;;;;;;;;;5095547;28;20446;-95
2020/12/04 11:07:46;;;;;;;32.40;22.90;;;;;;;;;;5085472;28;20424;-94
2020/12/04 11:10:12;;;;;;;34.10;22.57;;;;;;;;;;5089239;28;20460;-95
2020/12/04 11:12:41;;;;;;;32.40;21.60;;;;;;;;;;5084799;28;20465;-94
2020/12/04 11:15:08;;;;;;;28.93;21.60;;;;;;;;;;5069608;28;20451;-94
2020/12/04 11:17:34;;;;;;;30.80;22.60;;;;;;;;;;5073819;28;20450;-93
2020/12/04 11:20:01;;;;;;;33.97;23.93;;;;;;;;;;5090763;28;20487;-94
2020/12/04 11:22:33;;;;;;;30.33;22.50;;;;;;;;;;5092053;28;20497;-96
2020/12/04 11:24:59;;;;;;;27.47;21.07;;;;;;;;;;5088585;28;20503;-94
2020/12/04 11:27:27;;;;;;;28.63;21.70;;;;;;;;;;5087910;28;20469;-96
2020/12/04 11:29:54;;;;;;;32.03;21.27;;;;;;;;;;5108872;28;20533;-96
2020/12/04 11:32:26;;;;;;;32.63;21.63;;;;;;;;;;5103691;28;20446;-95
2020/12/04 11:35:04;;;;;;;29.30;22.00;;;;;;;;;;5094497;28;20450;-96
2020/12/04 11:37:31;;;;;;;28.70;21.10;;;;;;;;;;5067280;28;20537;-95
2020/12/04 11:39:57;;;;;;;27.27;21.50;;;;;;;;;;5084015;28;20467;-94
2020/12/04 11:42:27;;;;;;;32.70;22.13;;;;;;;;;;5092313;28;20494;-95
2020/12/04 11:44:56;;;;;;;30.43;21.87;;;;;;;;;;5093038;28;20457;-96
2020/12/04 11:47:37;;;;;;;29.87;22.30;;;;;;;;;;5096428;28;20461;-96
2020/12/04 11:50:04;;;;;;;36.30;25.10;;;;;;;;;;5075430;28;20458;-93
2020/12/04 11:52:30;;;;;;;31.80;22.30;;;;;;;;;;5085551;28;20461;-94
2020/12/04 11:54:56;;;;;;;28.00;21.20;;;;;;;;;;5082949;28;20434;-93
2020/12/04 11:57:22;;;;;;;32.93;22.60;;;;;;;;;;5087362;28;20466;-94
2020/12/04 11:59:49;;;;;;;28.90;21.00;;;;;;;;;;5102151;28;20455;-93
2020/12/04 12:02:15;;;;;;;28.90;20.67;;;;;;;;;;5081825;28;20486;-93
2020/12/04 12:04:42;;;;;;;30.60;21.50;;;;;;;;;;5088003;28;20462;-94
2020/12/04 12:07:08;;;;;;;28.00;19.17;;;;;;;;;;5079127;28;20469;-93
2020/12/04 12:09:34;;;;;;;26.00;17.90;;;;;;;;;;5087121;28;20451;-92
2020/12/04 12:12:00;;;;;;;26.97;19.70;;;;;;;;;;5074147;28;20470;-95
2020/12/04 12:14:26;;;;;;;23.30;17.63;;;;;;;;;;5072654;28;20478;-94
2020/12/04 12:16:52;;;;;;;23.07;17.60;;;;;;;;;;5059907;28;20477;-92
2020/12/04 12:19:18;;;;;;;23.30;16.77;;;;;;;;;;5086058;28;20443;-94
2020/12/04 12:21:48;;;;;;;27.87;16.27;;;;;;;;;;5086468;28;20497;-94
2020/12/04 12:24:14;;;;;;;21.63;15.53;;;;;;;;;;5076801;28;20505;-93
2020/12/04 12:26:40;;;;;;;22.50;16.60;;;;;;;;;;5084011;28;20480;-91
2020/12/04 12:29:07;;;;;;;21.60;16.07;;;;;;;;;;5086080;28;20457;-92
2020/12/04 12:31:33;;;;;;;19.03;14.73;;;;;;;;;;5088369;28;20522;-92
2020/12/04 12:33:59;;;;;;;19.03;13.63;;;;;;;;;;5078070;28;20452;-92
2020/12/04 12:36:25;;;;;;;19.10;13.70;;;;;;;;;;5082916;28;20483;-93
2020/12/04 12:38:53;;;;;;;20.37;15.50;;;;;;;;;;5080988;28;20469;-92
2020/12/04 12:41:19;;;;;;;23.27;16.30;;;;;;;;;;5085094;28;20494;-93
2020/12/04 12:43:45;;;;;;;17.10;13.53;;;;;;;;;;5087292;28;20445;-91
2020/12/04 12:46:11;;;;;;;16.50;13.27;;;;;;;;;;5082946;28;20472;-92
2020/12/04 12:48:37;;;;;;;19.00;14.73;;;;;;;;;;5114184;28;20437;-92
2020/12/04 12:51:03;;;;;;;20.03;14.90;;;;;;;;;;5094500;28;20454;-91
2020/12/04 12:53:29;;;;;;;20.53;14.70;;;;;;;;;;5093250;28;20444;-93
2020/12/04 12:55:56;;;;;;;21.33;14.90;;;;;;;;;;5082071;28;20474;-91
2020/12/04 12:58:22;;;;;;;19.80;14.57;;;;;;;;;;5104597;28;20446;-91
2020/12/04 13:00:48;;;;;;;20.37;16.10;;;;;;;;;;5094887;28;20512;-92
2020/12/04 13:03:14;;;;;;;26.20;18.23;;;;;;;;;;5084834;28;20459;-92
2020/12/04 13:05:40;;;;;;;38.80;23.73;;;;;;;;;;5089161;28;20473;-91
2020/12/04 13:08:06;;;;;;;29.40;18.63;;;;;;;;;;5081415;28;20449;-92
2020/12/04 13:10:32;;;;;;;27.10;18.03;;;;;;;;;;5084337;28;20479;-91
2020/12/04 13:12:59;;;;;;;25.87;18.73;;;;;;;;;;5078884;28;20456;-91
2020/12/04 13:15:26;;;;;;;27.70;20.53;;;;;;;;;;5090815;28;20472;-91
2020/12/04 13:17:52;;;;;;;29.93;20.27;;;;;;;;;;5089198;28;20449;-91
2020/12/04 13:20:18;;;;;;;24.80;17.73;;;;;;;;;;5083422;28;20457;-90
2020/12/04 13:23:11;;;;;;;31.67;19.87;;;;;;;;;;5073380;28;20520;-92
2020/12/04 13:25:32;;;;;;;24.50;16.90;;;;;;;;;;5079352;28;20453;-94
2020/12/04 13:27:58;;;;;;;23.10;17.27;;;;;;;;;;5094602;28;20461;-91
2020/12/04 13:30:26;;;;;;;24.63;17.80;;;;;;;;;;5083955;28;20456;-91
2020/12/04 13:32:52;;;;;;;22.10;16.00;;;;;;;;;;5084142;28;20460;-92
2020/12/04 13:35:18;;;;;;;25.47;17.27;;;;;;;;;;5087990;28;20465;-91
2020/12/04 13:37:44;;;;;;;25.03;17.40;;;;;;;;;;5102672;28;20440;-92
2020/12/04 13:40:10;;;;;;;22.83;16.40;;;;;;;;;;5084453;28;20453;-92
2020/12/04 13:42:36;;;;;;;26.57;17.50;;;;;;;;;;5083904;28;20497;-92
2020/12/04 13:45:02;;;;;;;22.87;16.47;;;;;;;;;;5080748;28;20461;-93
2020/12/04 13:47:29;;;;;;;26.20;18.40;;;;;;;;;;5084736;28;20457;-92
2020/12/04 13:49:55;;;;;;;22.63;18.07;;;;;;;;;;5076754;28;20450;-93
2020/12/04 13:52:21;;;;;;;22.73;16.77;;;;;;;;;;5083294;28;20464;-92
2020/12/04 13:54:47;;;;;;;23.50;16.90;;;;;;;;;;5088624;28;20465;-93
2020/12/04 13:57:14;;;;;;;23.93;16.57;;;;;;;;;;5081507;28;20453;-93
2020/12/04 13:59:41;;;;;;;26.07;17.77;;;;;;;;;;5082524;28;20452;-93
2020/12/04 14:02:07;;;;;;;27.50;18.30;;;;;;;;;;5080216;28;20489;-93
2020/12/04 14:04:34;;;;;;;27.40;20.10;;;;;;;;;;5096548;28;20491;-95
2020/12/04 14:07:00;;;;;;;23.27;18.10;;;;;;;;;;5095203;28;20445;-94
2020/12/04 14:09:26;;;;;;;32.83;21.00;;;;;;;;;;5086224;28;20445;-94
2020/12/04 14:11:52;;;;;;;27.20;19.13;;;;;;;;;;5077794;28;20458;-92
2020/12/04 14:14:18;;;;;;;29.87;20.97;;;;;;;;;;5090478;28;20468;-90
2020/12/04 14:16:45;;;;;;;31.27;22.70;;;;;;;;;;5083163;28;20464;-91
2020/12/04 14:19:11;;;;;;;32.40;23.70;;;;;;;;;;5076023;28;20485;-92
2020/12/04 14:21:38;;;;;;;34.17;22.67;;;;;;;;;;5082064;28;20488;-93
2020/12/04 14:24:04;;;;;;;46.37;28.07;;;;;;;;;;5086587;28;20488;-92
2020/12/04 14:26:31;;;;;;;47.90;26.67;;;;;;;;;;5081797;28;20477;-92
2020/12/04 14:28:57;;;;;;;49.40;26.83;;;;;;;;;;5072182;28;20465;-92
2020/12/04 14:31:24;;;;;;;45.93;28.93;;;;;;;;;;5082566;28;20529;-92
2020/12/04 14:33:50;;;;;;;39.90;28.10;;;;;;;;;;5086004;28;20484;-92
2020/12/04 14:36:16;;;;;;;42.77;29.40;;;;;;;;;;5103309;28;20537;-92
2020/12/04 14:39:03;;;;;;;39.50;28.93;;;;;;;;;;5100659;28;20460;-91
2020/12/04 14:41:29;;;;;;;40.87;30.57;;;;;;;;;;5082462;28;20488;-92
2020/12/04 14:43:55;;;;;;;38.97;28.00;;;;;;;;;;5103619;28;20466;-92
2020/12/04 14:46:21;;;;;;;34.23;24.53;;;;;;;;;;5084632;28;20479;-91
2020/12/04 14:48:47;;;;;;;34.23;24.70;;;;;;;;;;5080191;28;20441;-90
2020/12/04 14:51:14;;;;;;;36.90;24.33;;;;;;;;;;5072579;28;20468;-92